Windham, New Hampshire
Current Conditions -  °F | °C
As of 4:54 AM on Tuesday 27 Jan 2015 (Local Time) from KLWM Reporting Station
Moderate Snow Moderate Snow  
Wind Chill: -21°   Ceiling: 400
Heat Index: -11°   Visibility: 0.5mi
Dew Point: -12°   Wind: 23mph
Humidity: 88%   Direction: 10°N
Pressure: 29.68"   Gusts: 31mph
Location:  42.8°N, 71.3°W
Report Text: KLWM 270954Z AUTO 01020G27KT 1/2SM SN FZFG VV004 M11/M12 A2968 RMK AO2 PK WND 02031/0902 SLP054 P0001 T11061122 $
Loading
Personal Weather Stations






























Interactive Weather Map New forecast layout! Learn more

10-Day Weather Forecast

Advertisements
Track Severe Weather on mobile